Monte Pascoal — DNCQ — position and weather

sailwx.info

Track history (hours):
 
Tides and Currents Weather Stations Pressure Air Temp Water Temp Dewpoint Dewpoint Depression Visibility Wind Speed Wind Dir Waves Ship Positions

Monte Pascoal

Last reported at 2018-Mar-19 06:19 UTC. Time now 2018-Jul-22 21:53 UTC.
Position N 09°38' W 079°46'.
Warning: this ship's position is months out of date.

Length 272 m; beam 40 m; draft 12.5 m.

Type: Cargo ship. MMSI: 211611000.

Date/timePositionNaut miles runAvg speedWind from/ knotsBaromVisibWave heightAir tempDewpointWater temp
2018-Mar-19 06:19N 09°38' W 079°46'717.4
2018-Mar-19 05:54N 09°32' W 079°50'615.1
2018-Mar-19 05:29N 09°28' W 079°54'5 9.8
2018-Mar-19 05:00N 09°23' W 079°55'2 4.1
2018-Mar-19 04:30N 09°21' W 079°55'0 0.3
2018-Mar-19 04:00N 09°21' W 079°55'0 0.9
2018-Mar-19 03:30N 09°21' W 079°54'0 0.0
2018-Mar-19 03:00N 09°21' W 079°54'0 0.0
2018-Mar-19 02:30N 09°21' W 079°54'0 0.0
2018-Mar-19 02:00N 09°21' W 079°54'0 0.0
2018-Mar-19 01:30N 09°21' W 079°54'0 0.0
2018-Mar-19 01:00N 09°21' W 079°54'0 0.0
2018-Mar-19 00:30N 09°21' W 079°54'0 0.0
2018-Mar-19 00:00N 09°21' W 079°54'0 0.0
2018-Mar-18 23:30N 09°21' W 079°54'0 0.0
2018-Mar-18 23:00N 09°21' W 079°54'0 0.0
2018-Mar-18 22:30N 09°21' W 079°54'0 0.0
2018-Mar-18 22:00N 09°21' W 079°54'0 0.0
2018-Mar-18 21:30N 09°21' W 079°54'0 0.0
2018-Mar-18 21:00N 09°21' W 079°54'0 0.0
2018-Mar-18 20:30N 09°21' W 079°54'0 0.0
2018-Mar-18 20:00N 09°21' W 079°54'0 0.0
2018-Mar-18 19:30N 09°21' W 079°54'0 0.0
2018-Mar-18 19:00N 09°21' W 079°54'0 0.0
2018-Mar-18 18:30N 09°21' W 079°54'0 0.0
2018-Mar-18 18:00N 09°21' W 079°54'0 0.0
2018-Mar-18 17:30N 09°21' W 079°54'0 0.0
2018-Mar-18 17:00N 09°21' W 079°54'0 0.0
2018-Mar-18 16:30N 09°21' W 079°54'0 0.0
2018-Mar-18 16:00N 09°21' W 079°54'0 0.0
2018-Mar-18 15:30N 09°21' W 079°54'0 0.0
2018-Mar-18 15:00N 09°21' W 079°54'0 0.0
2018-Mar-18 14:30N 09°21' W 079°54'0 0.0
2018-Mar-18 14:00N 09°21' W 079°54'0 0.1
2018-Mar-18 13:30N 09°21' W 079°54'1 1.5
2018-Mar-18 13:01N 09°21' W 079°55'2 4.1
2018-Mar-18 12:30N 09°23' W 079°55'4 8.0
2018-Mar-18 12:00N 09°27' W 079°55'4 8.4
2018-Mar-18 11:31N 09°32' W 079°55'1 2.6
2018-Mar-18 11:00N 09°33' W 079°56'1 2.0
2018-Mar-18 10:26N 09°32' W 079°56'3 6.5
2018-Mar-18 10:00N 09°29' W 079°56'712.1
2018-Mar-18 09:27N 09°35' W 079°53'  
2018-Mar-14 23:50N 29°02' W 094°25'616.5
2018-Mar-14 23:28N 29°08' W 094°27'816.2
2018-Mar-14 23:00N 29°14' W 094°33'712.8
2018-Mar-14 22:29N 29°19' W 094°38'612.1
2018-Mar-14 21:59N 29°21' W 094°45'5 9.7
2018-Mar-14 21:30N 29°24' W 094°49'510.1
2018-Mar-14 20:58N 29°29' W 094°51'510.7
2018-Mar-14 20:30N 29°33' W 094°54'510.1
2018-Mar-14 20:00N 29°37' W 094°57'4 8.6
2018-Mar-14 19:30N 29°41' W 094°59'1 1.3
2018-Mar-14 19:00N 29°41' W 094°60'0 0.0
2018-Mar-14 18:30N 29°41' W 094°60'0 0.0
2018-Mar-14 18:00N 29°41' W 094°60'0 0.0
2018-Mar-14 17:30N 29°41' W 094°60'0 0.0
2018-Mar-14 17:00N 29°41' W 094°60'0 0.0
2018-Mar-14 16:30N 29°41' W 094°60'0 0.0
2018-Mar-14 16:00N 29°41' W 094°60'0 0.0
2018-Mar-14 15:30N 29°41' W 094°60'0 0.1
2018-Mar-14 15:00N 29°41' W 094°60'0 0.0
2018-Mar-14 14:30N 29°41' W 094°60'0 0.0
2018-Mar-14 14:00N 29°41' W 094°60'0 0.0
2018-Mar-14 13:30N 29°41' W 094°60'0 0.0
2018-Mar-14 13:00N 29°41' W 094°60'0 0.0
2018-Mar-14 12:30N 29°41' W 094°60'0 0.0
2018-Mar-14 12:00N 29°41' W 094°60'0 0.0
2018-Mar-14 11:30N 29°41' W 094°60'0 0.0
2018-Mar-14 11:00N 29°41' W 094°60'0 0.0
2018-Mar-14 10:30N 29°41' W 094°60'0 0.0
2018-Mar-14 10:00N 29°41' W 094°60'0 0.0
2018-Mar-14 09:30N 29°41' W 094°60'0 0.0
2018-Mar-14 09:00N 29°41' W 094°60'0 0.0
2018-Mar-14 08:30N 29°41' W 094°60'0 0.0
2018-Mar-14 08:00N 29°41' W 094°60'0 0.0
2018-Mar-14 07:30N 29°41' W 094°60'0 0.0
2018-Mar-14 07:00N 29°41' W 094°60'0 0.0
2018-Mar-14 06:30N 29°41' W 094°60'0 0.0
2018-Mar-14 06:00N 29°41' W 094°60'0 0.0
2018-Mar-14 05:29N 29°41' W 094°60'0 0.0
2018-Mar-14 04:59N 29°41' W 094°60'0 0.0
2018-Mar-14 04:29N 29°41' W 094°60'0 0.0
2018-Mar-14 03:59N 29°41' W 094°60'0 0.0
2018-Mar-14 03:29N 29°41' W 094°60'0 0.0
2018-Mar-14 02:59N 29°41' W 094°60'0 0.0
2018-Mar-14 02:29N 29°41' W 094°60'0 0.0
2018-Mar-14 01:59N 29°41' W 094°60'0 0.0
2018-Mar-14 01:29N 29°41' W 094°60'0 0.0
2018-Mar-14 00:59N 29°41' W 094°60'0 0.0
2018-Mar-14 00:29N 29°41' W 094°60'0 0.0
2018-Mar-13 23:59N 29°41' W 094°60'0 0.0
2018-Mar-13 23:26N 29°41' W 094°60'0 0.0
2018-Mar-13 22:59N 29°41' W 094°60'0 0.0
2018-Mar-13 22:29N 29°41' W 094°60'0 0.0
2018-Mar-13 21:59N 29°41' W 094°60'0 0.0
2018-Mar-13 21:29N 29°41' W 094°60'0 0.0
2018-Mar-13 20:59N 29°41' W 094°60'0 0.0
2018-Mar-13 20:29N 29°41' W 094°60'0 0.0
2018-Mar-13 19:59N 29°41' W 094°60'0 0.0
2018-Mar-13 19:29N 29°41' W 094°60'0 0.0
2018-Mar-13 18:59N 29°41' W 094°60'0 0.0
2018-Mar-13 18:29N 29°41' W 094°60'0 0.0
2018-Mar-13 17:59N 29°41' W 094°60'0 0.0
2018-Mar-13 17:29N 29°41' W 094°60'0 0.0
2018-Mar-13 16:59N 29°41' W 094°60'0 0.0
2018-Mar-13 16:29N 29°41' W 094°60'0 0.0
2018-Mar-13 15:59N 29°41' W 094°60'0 0.0
2018-Mar-13 15:29N 29°41' W 094°60'0 0.0
2018-Mar-13 14:59N 29°41' W 094°60'0 0.0
2018-Mar-13 14:29N 29°41' W 094°60'0 0.0
2018-Mar-13 13:59N 29°41' W 094°60'0 0.0
2018-Mar-13 13:29N 29°41' W 094°60'0 0.0
2018-Mar-13 12:59N 29°41' W 094°60'0 0.0
2018-Mar-13 12:29N 29°41' W 094°60'0 0.0
2018-Mar-13 11:59N 29°41' W 094°60'0 0.0
2018-Mar-13 11:29N 29°41' W 094°60'0 0.0
2018-Mar-13 10:59N 29°41' W 094°60'0 0.0
2018-Mar-13 10:29N 29°41' W 094°60'0 0.0
2018-Mar-13 09:59N 29°41' W 094°60'0 0.0
2018-Mar-13 09:29N 29°41' W 094°60'0 0.0
2018-Mar-13 08:59N 29°41' W 094°60'0 0.0
2018-Mar-13 08:26N 29°41' W 094°60'0 0.0
2018-Mar-13 07:59N 29°41' W 094°60'0 0.0
2018-Mar-13 07:29N 29°41' W 094°60'0 0.0
2018-Mar-13 06:56N 29°41' W 094°60'0 0.0
2018-Mar-13 06:29N 29°41' W 094°60'0 0.0
2018-Mar-13 05:59N 29°41' W 094°60'0 0.0
2018-Mar-13 05:29N 29°41' W 094°60'0 0.0
2018-Mar-13 05:00N 29°41' W 094°60'0 0.0
2018-Mar-13 04:30N 29°41' W 094°60'0 0.0
2018-Mar-13 04:00N 29°41' W 094°60'0 0.0
2018-Mar-13 03:29N 29°41' W 094°60'0 0.0
2018-Mar-13 03:00N 29°41' W 094°60'0 0.0
2018-Mar-13 02:30N 29°41' W 094°60'0 0.0
2018-Mar-13 02:00N 29°41' W 094°60'0 0.0
2018-Mar-13 01:30N 29°41' W 094°60'0 0.0
2018-Mar-13 01:00N 29°41' W 094°60'0 0.0
2018-Mar-13 00:30N 29°41' W 094°60'1 1.2
2018-Mar-13 00:01N 29°41' W 094°59'3 5.9
2018-Mar-12 23:30N 29°38' W 094°58'5 9.3
2018-Mar-12 23:00N 29°34' W 094°55'611.8
2018-Mar-12 22:30N 29°29' W 094°52'612.2
2018-Mar-12 22:00N 29°24' W 094°49'611.0
2018-Mar-12 21:30N 29°21' W 094°44'  
2018-Mar-10 08:52N 19°46' W 096°11'718.9
2018-Mar-10 08:30N 19°40' W 096°08'1019.3
2018-Mar-10 08:01N 19°31' W 096°03'1019.5
2018-Mar-10 07:30N 19°22' W 095°59'816.9
2018-Mar-10 07:01N 19°14' W 095°60'510.1
2018-Mar-10 06:30N 19°12' W 096°05'3 5.7
2018-Mar-10 06:00N 19°12' W 096°08'0 0.4
2018-Mar-10 05:29N 19°13' W 096°08'0 0.0
2018-Mar-10 05:00N 19°13' W 096°08'0 0.0
2018-Mar-10 04:30N 19°13' W 096°08'0 0.0
2018-Mar-10 04:00N 19°13' W 096°08'0 0.0
2018-Mar-10 03:30N 19°13' W 096°08'0 0.0
2018-Mar-10 02:54N 19°13' W 096°08'0 0.0
2018-Mar-10 02:27N 19°13' W 096°08'0 0.0
2018-Mar-10 02:00N 19°13' W 096°08'0 0.0
2018-Mar-10 01:30N 19°13' W 096°08'0 0.0
2018-Mar-10 00:57N 19°13' W 096°08'0 0.0
2018-Mar-10 00:30N 19°13' W 096°08'0 0.0
2018-Mar-10 00:00N 19°13' W 096°08'0 0.0
2018-Mar-09 23:30N 19°13' W 096°08'0 0.0
2018-Mar-09 23:00N 19°13' W 096°08'0 0.0
2018-Mar-09 22:30N 19°13' W 096°08'0 0.0
2018-Mar-09 22:00N 19°13' W 096°08'0 0.0
2018-Mar-09 21:30N 19°13' W 096°08'0 0.0
2018-Mar-09 21:00N 19°13' W 096°08'0 0.0
2018-Mar-09 20:30N 19°13' W 096°08'0 0.0
2018-Mar-09 20:00N 19°13' W 096°08'0 0.0
2018-Mar-09 19:30N 19°13' W 096°08'0 0.0
2018-Mar-09 19:00N 19°13' W 096°08'0 0.0
2018-Mar-09 18:30N 19°13' W 096°08'0 0.0
2018-Mar-09 18:00N 19°13' W 096°08'0 0.0
2018-Mar-09 17:30N 19°13' W 096°08'0 0.0
2018-Mar-09 17:00N 19°13' W 096°08'0 0.0
2018-Mar-09 16:30N 19°13' W 096°08'0 0.0
2018-Mar-09 16:00N 19°13' W 096°08'0 0.0
2018-Mar-09 15:30N 19°13' W 096°08'0 0.0
2018-Mar-09 15:00N 19°13' W 096°08'0 0.0
2018-Mar-09 14:27N 19°13' W 096°08'0 0.0
2018-Mar-09 13:57N 19°13' W 096°08'0 0.0
2018-Mar-09 13:24N 19°13' W 096°08'0 0.0
2018-Mar-09 13:00N 19°13' W 096°08'0 0.0
2018-Mar-09 12:30N 19°13' W 096°08'0 0.0
2018-Mar-09 12:00N 19°13' W 096°08'0 0.0
2018-Mar-09 11:30N 19°13' W 096°08'0 0.0
2018-Mar-09 11:00N 19°13' W 096°08'0 0.0
2018-Mar-09 10:30N 19°13' W 096°08'0 0.0
2018-Mar-09 09:57N 19°13' W 096°08'0 0.0
2018-Mar-09 09:30N 19°13' W 096°08'0 0.0
2018-Mar-09 09:00N 19°13' W 096°08'0 0.0
2018-Mar-09 08:29N 19°13' W 096°08'0 0.0
2018-Mar-09 08:00N 19°13' W 096°08'2 3.5
2018-Mar-09 07:30N 19°12' W 096°06'4 7.8
2018-Mar-09 07:00N 19°12' W 096°02'4 7.6
2018-Mar-09 06:30N 19°13' W 095°58'  
Track history (hours):
 
Tides and Currents Weather Stations Pressure Air Temp Water Temp Dewpoint Dewpoint Depression Visibility Wind Speed Wind Dir Waves Ship Positions

Monte Pascoal

Last reported at 2018-Mar-19 06:19 UTC. Time now 2018-Jul-22 21:53 UTC.
Position N 09°38' W 079°46'.
Warning: this ship's position is months out of date.

Length 272 m; beam 40 m; draft 12.5 m.

Type: Cargo ship. MMSI: 211611000.

Date/timePositionNaut miles runAvg speedWind from/ knotsBaromVisibWave heightAir tempDewpointWater temp
2018-Mar-19 06:19N 09°38' W 079°46'717.4
2018-Mar-19 05:54N 09°32' W 079°50'615.1
2018-Mar-19 05:29N 09°28' W 079°54'5 9.8
2018-Mar-19 05:00N 09°23' W 079°55'2 4.1
2018-Mar-19 04:30N 09°21' W 079°55'0 0.3
2018-Mar-19 04:00N 09°21' W 079°55'0 0.9
2018-Mar-19 03:30N 09°21' W 079°54'0 0.0
2018-Mar-19 03:00N 09°21' W 079°54'0 0.0
2018-Mar-19 02:30N 09°21' W 079°54'0 0.0
2018-Mar-19 02:00N 09°21' W 079°54'0 0.0
2018-Mar-19 01:30N 09°21' W 079°54'0 0.0
2018-Mar-19 01:00N 09°21' W 079°54'0 0.0
2018-Mar-19 00:30N 09°21' W 079°54'0 0.0
2018-Mar-19 00:00N 09°21' W 079°54'0 0.0
2018-Mar-18 23:30N 09°21' W 079°54'0 0.0
2018-Mar-18 23:00N 09°21' W 079°54'0 0.0
2018-Mar-18 22:30N 09°21' W 079°54'0 0.0
2018-Mar-18 22:00N 09°21' W 079°54'0 0.0
2018-Mar-18 21:30N 09°21' W 079°54'0 0.0
2018-Mar-18 21:00N 09°21' W 079°54'0 0.0
2018-Mar-18 20:30N 09°21' W 079°54'0 0.0
2018-Mar-18 20:00N 09°21' W 079°54'0 0.0
2018-Mar-18 19:30N 09°21' W 079°54'0 0.0
2018-Mar-18 19:00N 09°21' W 079°54'0 0.0
2018-Mar-18 18:30N 09°21' W 079°54'0 0.0
2018-Mar-18 18:00N 09°21' W 079°54'0 0.0
2018-Mar-18 17:30N 09°21' W 079°54'0 0.0
2018-Mar-18 17:00N 09°21' W 079°54'0 0.0
2018-Mar-18 16:30N 09°21' W 079°54'0 0.0
2018-Mar-18 16:00N 09°21' W 079°54'0 0.0
2018-Mar-18 15:30N 09°21' W 079°54'0 0.0
2018-Mar-18 15:00N 09°21' W 079°54'0 0.0
2018-Mar-18 14:30N 09°21' W 079°54'0 0.0
2018-Mar-18 14:00N 09°21' W 079°54'0 0.1
2018-Mar-18 13:30N 09°21' W 079°54'1 1.5
2018-Mar-18 13:01N 09°21' W 079°55'2 4.1
2018-Mar-18 12:30N 09°23' W 079°55'4 8.0
2018-Mar-18 12:00N 09°27' W 079°55'4 8.4
2018-Mar-18 11:31N 09°32' W 079°55'1 2.6
2018-Mar-18 11:00N 09°33' W 079°56'1 2.0
2018-Mar-18 10:26N 09°32' W 079°56'3 6.5
2018-Mar-18 10:00N 09°29' W 079°56'712.1
2018-Mar-18 09:27N 09°35' W 079°53'  
2018-Mar-14 23:50N 29°02' W 094°25'616.5
2018-Mar-14 23:28N 29°08' W 094°27'816.2
2018-Mar-14 23:00N 29°14' W 094°33'712.8
2018-Mar-14 22:29N 29°19' W 094°38'612.1
2018-Mar-14 21:59N 29°21' W 094°45'5 9.7
2018-Mar-14 21:30N 29°24' W 094°49'510.1
2018-Mar-14 20:58N 29°29' W 094°51'510.7
2018-Mar-14 20:30N 29°33' W 094°54'510.1
2018-Mar-14 20:00N 29°37' W 094°57'4 8.6
2018-Mar-14 19:30N 29°41' W 094°59'1 1.3
2018-Mar-14 19:00N 29°41' W 094°60'0 0.0
2018-Mar-14 18:30N 29°41' W 094°60'0 0.0
2018-Mar-14 18:00N 29°41' W 094°60'0 0.0
2018-Mar-14 17:30N 29°41' W 094°60'0 0.0
2018-Mar-14 17:00N 29°41' W 094°60'0 0.0
2018-Mar-14 16:30N 29°41' W 094°60'0 0.0
2018-Mar-14 16:00N 29°41' W 094°60'0 0.0
2018-Mar-14 15:30N 29°41' W 094°60'0 0.1
2018-Mar-14 15:00N 29°41' W 094°60'0 0.0
2018-Mar-14 14:30N 29°41' W 094°60'0 0.0
2018-Mar-14 14:00N 29°41' W 094°60'0 0.0
2018-Mar-14 13:30N 29°41' W 094°60'0 0.0
2018-Mar-14 13:00N 29°41' W 094°60'0 0.0
2018-Mar-14 12:30N 29°41' W 094°60'0 0.0
2018-Mar-14 12:00N 29°41' W 094°60'0 0.0
2018-Mar-14 11:30N 29°41' W 094°60'0 0.0
2018-Mar-14 11:00N 29°41' W 094°60'0 0.0
2018-Mar-14 10:30N 29°41' W 094°60'0 0.0
2018-Mar-14 10:00N 29°41' W 094°60'0 0.0
2018-Mar-14 09:30N 29°41' W 094°60'0 0.0
2018-Mar-14 09:00N 29°41' W 094°60'0 0.0
2018-Mar-14 08:30N 29°41' W 094°60'0 0.0
2018-Mar-14 08:00N 29°41' W 094°60'0 0.0
2018-Mar-14 07:30N 29°41' W 094°60'0 0.0
2018-Mar-14 07:00N 29°41' W 094°60'0 0.0
2018-Mar-14 06:30N 29°41' W 094°60'0 0.0
2018-Mar-14 06:00N 29°41' W 094°60'0 0.0
2018-Mar-14 05:29N 29°41' W 094°60'0 0.0
2018-Mar-14 04:59N 29°41' W 094°60'0 0.0
2018-Mar-14 04:29N 29°41' W 094°60'0 0.0
2018-Mar-14 03:59N 29°41' W 094°60'0 0.0
2018-Mar-14 03:29N 29°41' W 094°60'0 0.0
2018-Mar-14 02:59N 29°41' W 094°60'0 0.0
2018-Mar-14 02:29N 29°41' W 094°60'0 0.0
2018-Mar-14 01:59N 29°41' W 094°60'0 0.0
2018-Mar-14 01:29N 29°41' W 094°60'0 0.0
2018-Mar-14 00:59N 29°41' W 094°60'0 0.0
2018-Mar-14 00:29N 29°41' W 094°60'0 0.0
2018-Mar-13 23:59N 29°41' W 094°60'0 0.0
2018-Mar-13 23:26N 29°41' W 094°60'0 0.0
2018-Mar-13 22:59N 29°41' W 094°60'0 0.0
2018-Mar-13 22:29N 29°41' W 094°60'0 0.0
2018-Mar-13 21:59N 29°41' W 094°60'0 0.0
2018-Mar-13 21:29N 29°41' W 094°60'0 0.0
2018-Mar-13 20:59N 29°41' W 094°60'0 0.0
2018-Mar-13 20:29N 29°41' W 094°60'0 0.0
2018-Mar-13 19:59N 29°41' W 094°60'0 0.0
2018-Mar-13 19:29N 29°41' W 094°60'0 0.0
2018-Mar-13 18:59N 29°41' W 094°60'0 0.0
2018-Mar-13 18:29N 29°41' W 094°60'0 0.0
2018-Mar-13 17:59N 29°41' W 094°60'0 0.0
2018-Mar-13 17:29N 29°41' W 094°60'0 0.0
2018-Mar-13 16:59N 29°41' W 094°60'0 0.0
2018-Mar-13 16:29N 29°41' W 094°60'0 0.0
2018-Mar-13 15:59N 29°41' W 094°60'0 0.0
2018-Mar-13 15:29N 29°41' W 094°60'0 0.0
2018-Mar-13 14:59N 29°41' W 094°60'0 0.0
2018-Mar-13 14:29N 29°41' W 094°60'0 0.0
2018-Mar-13 13:59N 29°41' W 094°60'0 0.0
2018-Mar-13 13:29N 29°41' W 094°60'0 0.0
2018-Mar-13 12:59N 29°41' W 094°60'0 0.0
2018-Mar-13 12:29N 29°41' W 094°60'0 0.0
2018-Mar-13 11:59N 29°41' W 094°60'0 0.0
2018-Mar-13 11:29N 29°41' W 094°60'0 0.0
2018-Mar-13 10:59N 29°41' W 094°60'0 0.0
2018-Mar-13 10:29N 29°41' W 094°60'0 0.0
2018-Mar-13 09:59N 29°41' W 094°60'0 0.0
2018-Mar-13 09:29N 29°41' W 094°60'0 0.0
2018-Mar-13 08:59N 29°41' W 094°60'0 0.0
2018-Mar-13 08:26N 29°41' W 094°60'0 0.0
2018-Mar-13 07:59N 29°41' W 094°60'0 0.0
2018-Mar-13 07:29N 29°41' W 094°60'0 0.0
2018-Mar-13 06:56N 29°41' W 094°60'0 0.0
2018-Mar-13 06:29N 29°41' W 094°60'0 0.0
2018-Mar-13 05:59N 29°41' W 094°60'0 0.0
2018-Mar-13 05:29N 29°41' W 094°60'0 0.0
2018-Mar-13 05:00N 29°41' W 094°60'0 0.0
2018-Mar-13 04:30N 29°41' W 094°60'0 0.0
2018-Mar-13 04:00N 29°41' W 094°60'0 0.0
2018-Mar-13 03:29N 29°41' W 094°60'0 0.0
2018-Mar-13 03:00N 29°41' W 094°60'0 0.0
2018-Mar-13 02:30N 29°41' W 094°60'0 0.0
2018-Mar-13 02:00N 29°41' W 094°60'0 0.0
2018-Mar-13 01:30N 29°41' W 094°60'0 0.0
2018-Mar-13 01:00N 29°41' W 094°60'0 0.0
2018-Mar-13 00:30N 29°41' W 094°60'1 1.2
2018-Mar-13 00:01N 29°41' W 094°59'3 5.9
2018-Mar-12 23:30N 29°38' W 094°58'5 9.3
2018-Mar-12 23:00N 29°34' W 094°55'611.8
2018-Mar-12 22:30N 29°29' W 094°52'612.2
2018-Mar-12 22:00N 29°24' W 094°49'611.0
2018-Mar-12 21:30N 29°21' W 094°44'  
2018-Mar-10 08:52N 19°46' W 096°11'718.9
2018-Mar-10 08:30N 19°40' W 096°08'1019.3
2018-Mar-10 08:01N 19°31' W 096°03'1019.5
2018-Mar-10 07:30N 19°22' W 095°59'816.9
2018-Mar-10 07:01N 19°14' W 095°60'510.1
2018-Mar-10 06:30N 19°12' W 096°05'3 5.7
2018-Mar-10 06:00N 19°12' W 096°08'0 0.4
2018-Mar-10 05:29N 19°13' W 096°08'0 0.0
2018-Mar-10 05:00N 19°13' W 096°08'0 0.0
2018-Mar-10 04:30N 19°13' W 096°08'0 0.0
2018-Mar-10 04:00N 19°13' W 096°08'0 0.0
2018-Mar-10 03:30N 19°13' W 096°08'0 0.0
2018-Mar-10 02:54N 19°13' W 096°08'0 0.0
2018-Mar-10 02:27N 19°13' W 096°08'0 0.0
2018-Mar-10 02:00N 19°13' W 096°08'0 0.0
2018-Mar-10 01:30N 19°13' W 096°08'0 0.0
2018-Mar-10 00:57N 19°13' W 096°08'0 0.0
2018-Mar-10 00:30N 19°13' W 096°08'0 0.0
2018-Mar-10 00:00N 19°13' W 096°08'0 0.0
2018-Mar-09 23:30N 19°13' W 096°08'0 0.0
2018-Mar-09 23:00N 19°13' W 096°08'0 0.0
2018-Mar-09 22:30N 19°13' W 096°08'0 0.0
2018-Mar-09 22:00N 19°13' W 096°08'0 0.0
2018-Mar-09 21:30N 19°13' W 096°08'0 0.0
2018-Mar-09 21:00N 19°13' W 096°08'0 0.0
2018-Mar-09 20:30N 19°13' W 096°08'0 0.0
2018-Mar-09 20:00N 19°13' W 096°08'0 0.0
2018-Mar-09 19:30N 19°13' W 096°08'0 0.0
2018-Mar-09 19:00N 19°13' W 096°08'0 0.0
2018-Mar-09 18:30N 19°13' W 096°08'0 0.0
2018-Mar-09 18:00N 19°13' W 096°08'0 0.0
2018-Mar-09 17:30N 19°13' W 096°08'0 0.0
2018-Mar-09 17:00N 19°13' W 096°08'0 0.0
2018-Mar-09 16:30N 19°13' W 096°08'0 0.0
2018-Mar-09 16:00N 19°13' W 096°08'0 0.0
2018-Mar-09 15:30N 19°13' W 096°08'0 0.0
2018-Mar-09 15:00N 19°13' W 096°08'0 0.0
2018-Mar-09 14:27N 19°13' W 096°08'0 0.0
2018-Mar-09 13:57N 19°13' W 096°08'0 0.0
2018-Mar-09 13:24N 19°13' W 096°08'0 0.0
2018-Mar-09 13:00N 19°13' W 096°08'0 0.0
2018-Mar-09 12:30N 19°13' W 096°08'0 0.0
2018-Mar-09 12:00N 19°13' W 096°08'0 0.0
2018-Mar-09 11:30N 19°13' W 096°08'0 0.0
2018-Mar-09 11:00N 19°13' W 096°08'0 0.0
2018-Mar-09 10:30N 19°13' W 096°08'0 0.0
2018-Mar-09 09:57N 19°13' W 096°08'0 0.0
2018-Mar-09 09:30N 19°13' W 096°08'0 0.0
2018-Mar-09 09:00N 19°13' W 096°08'0 0.0
2018-Mar-09 08:29N 19°13' W 096°08'0 0.0
2018-Mar-09 08:00N 19°13' W 096°08'2 3.5
2018-Mar-09 07:30N 19°12' W 096°06'4 7.8
2018-Mar-09 07:00N 19°12' W 096°02'4 7.6
2018-Mar-09 06:30N 19°13' W 095°58'  

Dump ship's entire track history